createdAt,value
2019-04-16T00:02:00.378Z,24.80
2019-04-16T00:04:53.637Z,25.40
2019-04-16T00:07:42.471Z,31.37
2019-04-16T00:10:22.142Z,28.43
2019-04-16T00:13:11.618Z,28.70
2019-04-16T00:15:42.153Z,25.67
2019-04-16T00:18:12.654Z,25.37
2019-04-16T00:21:02.080Z,24.10
2019-04-16T00:23:51.569Z,28.33
2019-04-16T00:26:26.551Z,24.27
2019-04-16T00:28:54.671Z,25.43
2019-04-16T00:31:27.655Z,26.67
2019-04-16T00:33:58.196Z,24.90
2019-04-16T00:36:28.593Z,24.23
2019-04-16T00:38:59.055Z,30.80
2019-04-16T00:41:29.615Z,25.60
2019-04-16T00:44:00.070Z,29.80
2019-04-16T00:46:30.565Z,31.17
2019-04-16T00:49:01.034Z,27.57
2019-04-16T00:51:32.985Z,28.93
2019-04-16T00:54:03.580Z,23.93
2019-04-16T00:56:34.106Z,26.60
2019-04-16T00:59:04.744Z,27.60
2019-04-16T01:01:35.334Z,33.20
2019-04-16T01:04:07.025Z,33.13
2019-04-16T01:06:37.914Z,25.37
2019-04-16T01:09:09.941Z,23.80
2019-04-16T01:11:40.481Z,26.43
2019-04-16T01:14:11.940Z,30.33
2019-04-16T01:16:42.538Z,22.97
2019-04-16T01:19:13.038Z,24.87
2019-04-16T01:21:45.568Z,29.83
2019-04-16T01:24:17.556Z,34.10
2019-04-16T01:26:48.508Z,25.93
2019-04-16T01:29:20.715Z,20.60
2019-04-16T01:32:01.851Z,22.50
2019-04-16T01:34:51.434Z,29.60
2019-04-16T01:37:41.757Z,22.93
2019-04-16T01:40:18.516Z,23.83
2019-04-16T01:42:48.211Z,28.17
2019-04-16T01:45:18.619Z,19.00
2019-04-16T01:47:49.180Z,24.43
2019-04-16T01:50:19.708Z,21.63
2019-04-16T01:52:50.595Z,19.73
2019-04-16T01:55:25.505Z,21.77
2019-04-16T01:57:53.467Z,25.50
2019-04-16T02:00:24.164Z,20.43
2019-04-16T02:02:54.618Z,26.37
2019-04-16T02:05:25.166Z,22.10
2019-04-16T02:07:56.373Z,22.73
2019-04-16T02:10:27.814Z,22.20
2019-04-16T02:12:58.548Z,23.23
2019-04-16T02:15:29.090Z,22.67
2019-04-16T02:18:00.255Z,24.23
2019-04-16T02:20:30.849Z,20.87
2019-04-16T02:23:01.284Z,21.20
2019-04-16T02:25:31.829Z,23.47
2019-04-16T02:28:02.379Z,22.73
2019-04-16T02:30:37.594Z,23.47
2019-04-16T02:33:05.233Z,25.23
2019-04-16T02:35:35.976Z,18.20
2019-04-16T02:38:10.823Z,21.63
2019-04-16T02:40:40.564Z,22.20
2019-04-16T02:43:11.297Z,20.97
2019-04-16T02:45:41.830Z,22.90
2019-04-16T02:48:16.959Z,22.53
2019-04-16T02:50:47.480Z,19.50
2019-04-16T02:53:37.025Z,22.17
2019-04-16T02:56:26.674Z,20.93
2019-04-16T02:59:10.026Z,23.77
2019-04-16T03:01:55.324Z,18.93
2019-04-16T03:04:29.832Z,21.17
2019-04-16T03:07:02.908Z,22.70
2019-04-16T03:09:32.555Z,18.20
2019-04-16T03:12:03.128Z,20.47
2019-04-16T03:14:34.656Z,18.80
2019-04-16T03:17:17.430Z,21.37
2019-04-16T03:19:50.977Z,23.83
2019-04-16T03:22:20.339Z,18.57
2019-04-16T03:24:50.846Z,17.30
2019-04-16T03:27:22.243Z,25.03
2019-04-16T03:29:53.444Z,23.83
2019-04-16T03:32:23.892Z,21.33
2019-04-16T03:34:54.440Z,20.77
2019-04-16T03:37:24.893Z,27.37
2019-04-16T03:39:55.482Z,22.23
2019-04-16T03:42:27.367Z,22.50
2019-04-16T03:44:58.732Z,18.97
2019-04-16T03:47:29.231Z,20.87
2019-04-16T03:50:00.225Z,22.23
2019-04-16T03:52:30.971Z,22.87
2019-04-16T03:55:01.542Z,20.77
2019-04-16T03:57:33.225Z,21.10
2019-04-16T04:00:11.131Z,22.73
2019-04-16T04:02:38.209Z,25.57
2019-04-16T04:05:08.903Z,22.33
2019-04-16T04:07:43.866Z,20.90
2019-04-16T04:10:14.302Z,17.70
2019-04-16T04:12:46.561Z,18.00
2019-04-16T04:15:17.286Z,18.30
2019-04-16T04:17:49.805Z,17.93
2019-04-16T04:20:20.307Z,16.57
2019-04-16T04:22:50.774Z,17.30
2019-04-16T04:25:21.369Z,21.30
2019-04-16T04:27:51.752Z,15.97
2019-04-16T04:30:25.647Z,20.07
2019-04-16T04:32:56.262Z,19.80
2019-04-16T04:35:26.774Z,18.87
2019-04-16T04:38:00.740Z,18.60
2019-04-16T04:40:43.834Z,19.40
2019-04-16T04:43:04.539Z,16.17
2019-04-16T04:45:37.615Z,17.73
2019-04-16T04:48:11.136Z,18.27
2019-04-16T04:50:41.911Z,17.43
2019-04-16T04:53:15.636Z,16.50
2019-04-16T04:55:45.812Z,21.13
2019-04-16T04:58:17.574Z,21.83
2019-04-16T05:00:48.142Z,18.67
2019-04-16T05:03:38.799Z,14.87
2019-04-16T05:06:10.613Z,17.90
2019-04-16T05:08:41.263Z,18.77
2019-04-16T05:11:12.586Z,16.13
2019-04-16T05:13:46.368Z,12.83
2019-04-16T05:16:16.967Z,13.30
2019-04-16T05:18:47.857Z,18.67
2019-04-16T05:21:19.507Z,19.93
2019-04-16T05:23:50.329Z,21.13
2019-04-16T05:26:21.023Z,15.60
2019-04-16T05:28:51.622Z,17.97
2019-04-16T05:31:25.646Z,18.00
2019-04-16T05:33:54.527Z,19.13
2019-04-16T05:36:25.249Z,16.20
2019-04-16T05:38:56.447Z,16.70
2019-04-16T05:41:27.153Z,20.70
2019-04-16T05:43:58.480Z,14.17
2019-04-16T05:46:30.124Z,14.10
2019-04-16T05:49:01.706Z,16.40
2019-04-16T05:51:32.569Z,14.13
2019-04-16T05:54:18.934Z,15.13
2019-04-16T05:56:55.468Z,11.37
2019-04-16T05:59:24.882Z,19.90
2019-04-16T06:02:07.107Z,16.20
2019-04-16T06:04:37.742Z,15.93
2019-04-16T06:07:08.541Z,16.63
2019-04-16T06:09:41.499Z,24.77
2019-04-16T06:12:11.539Z,14.97
2019-04-16T06:14:53.823Z,13.93
2019-04-16T06:17:32.808Z,22.03
2019-04-16T06:20:22.593Z,18.87
2019-04-16T06:23:02.575Z,23.87
2019-04-16T06:25:42.070Z,15.23
2019-04-16T06:28:32.493Z,15.97
2019-04-16T06:31:22.216Z,12.27
2019-04-16T06:34:11.887Z,13.77
2019-04-16T06:36:48.569Z,11.53
2019-04-16T06:39:38.297Z,15.87
2019-04-16T06:42:28.007Z,12.73
2019-04-16T06:45:01.713Z,15.63
2019-04-16T06:47:44.961Z,15.60
2019-04-16T06:50:32.438Z,10.20
2019-04-16T06:53:23.708Z,16.73
2019-04-16T06:56:13.490Z,9.60
2019-04-16T06:58:51.307Z,11.97
2019-04-16T07:01:41.943Z,8.43
2019-04-16T07:04:18.125Z,7.43
2019-04-16T07:07:09.243Z,9.57
2019-04-16T07:09:45.901Z,10.80
2019-04-16T07:12:18.878Z,8.53
2019-04-16T07:14:49.833Z,13.10
2019-04-16T07:17:20.510Z,8.77
2019-04-16T07:19:51.149Z,7.83
2019-04-16T07:22:22.195Z,8.27
2019-04-16T07:24:57.027Z,12.83
2019-04-16T07:27:38.569Z,8.53
2019-04-16T07:30:28.906Z,9.90
2019-04-16T07:33:18.620Z,13.60
2019-04-16T07:35:55.236Z,8.97
2019-04-16T07:38:35.190Z,7.30
2019-04-16T07:41:25.282Z,12.20
2019-04-16T07:44:10.240Z,6.73
2019-04-16T07:46:56.827Z,8.97
2019-04-16T07:49:32.386Z,11.87
2019-04-16T07:52:22.174Z,10.03
2019-04-16T07:55:12.006Z,13.57
2019-04-16T07:57:42.674Z,8.60
2019-04-16T08:00:15.186Z,9.27
2019-04-16T08:02:45.874Z,9.83
2019-04-16T08:05:16.608Z,7.23
2019-04-16T08:07:49.790Z,8.83
2019-04-16T08:10:19.775Z,12.83
2019-04-16T08:12:56.957Z,6.17
2019-04-16T08:15:27.381Z,6.27
2019-04-16T08:17:58.428Z,8.13
2019-04-16T08:20:30.411Z,9.47
2019-04-16T08:23:06.614Z,10.37
2019-04-16T08:25:38.379Z,8.90
2019-04-16T08:28:09.088Z,6.57
2019-04-16T08:30:39.680Z,7.67
2019-04-16T08:33:11.238Z,7.33
2019-04-16T08:35:48.201Z,5.63
2019-04-16T08:38:18.755Z,5.60
2019-04-16T08:40:49.391Z,9.33
2019-04-16T08:43:20.017Z,7.70
2019-04-16T08:45:50.916Z,4.40
2019-04-16T08:48:21.607Z,5.97
2019-04-16T08:50:52.172Z,5.67
2019-04-16T08:53:22.863Z,7.03
2019-04-16T08:55:53.531Z,8.83
2019-04-16T08:58:24.098Z,8.10
2019-04-16T09:00:54.839Z,9.43
2019-04-16T09:03:26.834Z,9.67
2019-04-16T09:05:57.781Z,6.37
2019-04-16T09:08:44.851Z,9.43
2019-04-16T09:11:23.188Z,6.50
2019-04-16T09:13:52.018Z,8.47
2019-04-16T09:16:22.746Z,5.60
2019-04-16T09:19:07.952Z,7.40
2019-04-16T09:21:43.406Z,7.33
2019-04-16T09:24:29.844Z,5.67
2019-04-16T09:27:16.709Z,5.30
2019-04-16T09:30:02.582Z,7.77
2019-04-16T09:32:40.870Z,6.43
2019-04-16T09:35:19.867Z,6.30
2019-04-16T09:37:53.576Z,5.47
2019-04-16T09:40:43.360Z,8.17
2019-04-16T09:43:18.433Z,9.23
2019-04-16T09:45:49.408Z,4.93
2019-04-16T09:48:20.296Z,10.47
2019-04-16T09:50:51.600Z,5.93
2019-04-16T09:53:32.876Z,4.43
2019-04-16T09:55:54.508Z,5.97
2019-04-16T09:58:25.695Z,5.07
2019-04-16T10:01:05.949Z,8.77
2019-04-16T10:03:38.779Z,8.23
2019-04-16T10:06:09.521Z,6.70
2019-04-16T10:08:44.339Z,8.17
2019-04-16T10:11:12.621Z,5.40
2019-04-16T10:13:43.360Z,9.77
2019-04-16T10:16:14.437Z,10.87
2019-04-16T10:18:45.237Z,6.00
2019-04-16T10:21:18.868Z,5.73
2019-04-16T10:24:07.366Z,9.27
2019-04-16T10:26:38.107Z,5.70
2019-04-16T10:29:13.249Z,8.20
2019-04-16T10:31:44.126Z,4.13
2019-04-16T10:34:14.951Z,4.83
2019-04-16T10:36:45.652Z,8.80
2019-04-16T10:39:26.354Z,6.83
2019-04-16T10:42:05.320Z,7.50
2019-04-16T10:44:44.565Z,5.80
2019-04-16T10:47:35.808Z,10.50
2019-04-16T10:50:18.011Z,6.37
2019-04-16T10:53:04.237Z,7.33
2019-04-16T10:55:54.083Z,6.07
2019-04-16T10:58:43.719Z,6.53
2019-04-16T11:01:20.104Z,7.17
2019-04-16T11:04:07.371Z,9.83
2019-04-16T11:06:41.014Z,6.40
2019-04-16T11:09:11.824Z,6.07
2019-04-16T11:11:42.513Z,6.87
2019-04-16T11:14:13.587Z,5.60
2019-04-16T11:16:49.029Z,9.20
2019-04-16T11:19:19.871Z,8.53
2019-04-16T11:21:50.436Z,9.27
2019-04-16T11:24:24.320Z,8.53
2019-04-16T11:26:55.043Z,8.30
2019-04-16T11:29:25.754Z,12.03
2019-04-16T11:31:56.620Z,12.17
2019-04-16T11:34:27.175Z,9.07
2019-04-16T11:36:58.519Z,11.17
2019-04-16T11:39:29.500Z,9.23
2019-04-16T11:42:00.208Z,13.33
2019-04-16T11:44:30.988Z,12.90
2019-04-16T11:47:04.335Z,18.13
2019-04-16T11:49:35.075Z,10.73
2019-04-16T11:52:05.828Z,8.20
2019-04-16T11:54:36.347Z,7.60
2019-04-16T11:57:07.047Z,6.93
2019-04-16T11:59:38.327Z,6.47
2019-04-16T12:02:20.654Z,8.17
2019-04-16T12:05:10.381Z,8.63
2019-04-16T12:07:47.232Z,8.63
2019-04-16T12:10:37.279Z,8.20
2019-04-16T12:13:27.046Z,5.70
2019-04-16T12:16:16.817Z,10.37
2019-04-16T12:19:04.061Z,10.00
2019-04-16T12:21:52.884Z,6.90
2019-04-16T12:24:42.686Z,7.67
2019-04-16T12:27:32.300Z,6.80
2019-04-16T12:30:22.040Z,8.97
2019-04-16T12:33:07.716Z,9.70
2019-04-16T12:35:39.543Z,9.40
2019-04-16T12:38:18.375Z,9.03
2019-04-16T12:41:01.061Z,11.63
2019-04-16T12:43:35.118Z,11.57
2019-04-16T12:46:15.173Z,15.30
2019-04-16T12:48:54.872Z,19.87
2019-04-16T12:51:44.690Z,36.07
2019-04-16T12:54:37.671Z,10.20
2019-04-16T12:57:16.778Z,14.97
2019-04-16T13:00:06.030Z,8.40
2019-04-16T13:02:55.907Z,6.43
2019-04-16T13:05:33.761Z,5.00
2019-04-16T13:08:23.535Z,7.20
2019-04-16T13:11:08.090Z,7.77
2019-04-16T13:13:51.872Z,9.17
2019-04-16T13:16:35.592Z,10.63
2019-04-16T13:19:24.279Z,7.40
2019-04-16T13:21:59.920Z,10.23
2019-04-16T13:24:35.420Z,8.50
2019-04-16T13:27:11.418Z,10.10
2019-04-16T13:29:42.017Z,9.73
2019-04-16T13:32:13.068Z,11.90
2019-04-16T13:34:43.875Z,10.30
2019-04-16T13:37:14.556Z,11.63
2019-04-16T13:40:04.485Z,14.07
2019-04-16T13:42:35.550Z,10.67
2019-04-16T13:45:27.586Z,14.93
2019-04-16T13:48:14.775Z,15.63
2019-04-16T13:50:45.532Z,13.53
2019-04-16T13:53:29.060Z,15.00
2019-04-16T13:56:17.440Z,11.07
2019-04-16T13:58:56.044Z,12.60
2019-04-16T14:01:29.452Z,11.73
2019-04-16T14:04:00.195Z,13.07
2019-04-16T14:06:30.925Z,13.83
2019-04-16T14:09:02.341Z,15.40
2019-04-16T14:11:34.598Z,18.60
2019-04-16T14:14:07.625Z,24.83
2019-04-16T14:16:43.816Z,19.07
2019-04-16T14:19:14.972Z,17.17
2019-04-16T14:21:46.030Z,15.00
2019-04-16T14:24:16.933Z,13.23
2019-04-16T14:26:47.743Z,14.43
2019-04-16T14:29:19.445Z,11.53
2019-04-16T14:31:50.204Z,14.03
2019-04-16T14:34:30.482Z,13.90
2019-04-16T14:37:01.502Z,15.37
2019-04-16T14:39:35.623Z,11.73
2019-04-16T14:42:06.410Z,14.27
2019-04-16T14:44:41.600Z,14.30
2019-04-16T14:47:22.090Z,19.07
2019-04-16T14:49:53.829Z,10.37
2019-04-16T14:52:24.496Z,12.50
2019-04-16T14:55:01.767Z,8.90
2019-04-16T14:57:32.556Z,13.40
2019-04-16T15:00:22.470Z,13.80
2019-04-16T15:03:04.233Z,13.13
2019-04-16T15:05:47.677Z,15.10
2019-04-16T15:08:29.752Z,17.97
2019-04-16T15:11:20.762Z,16.03
2019-04-16T15:14:07.701Z,16.37
2019-04-16T15:16:51.612Z,19.17
2019-04-16T15:19:43.776Z,16.60
2019-04-16T15:22:22.876Z,25.47
2019-04-16T15:25:13.445Z,19.50
2019-04-16T15:28:03.573Z,17.57
2019-04-16T15:30:53.351Z,20.17
2019-04-16T15:33:43.112Z,21.80
2019-04-16T15:36:19.420Z,19.40
2019-04-16T15:39:08.514Z,17.07
2019-04-16T15:41:59.012Z,13.70
2019-04-16T15:44:48.850Z,20.50
2019-04-16T15:47:32.743Z,19.57
2019-04-16T15:50:08.072Z,20.17
2019-04-16T15:52:57.901Z,16.03
2019-04-16T15:55:41.080Z,14.90
2019-04-16T15:58:21.792Z,17.57
2019-04-16T16:01:11.558Z,18.50
2019-04-16T16:04:01.339Z,12.27
2019-04-16T16:06:32.537Z,21.30
2019-04-16T16:09:17.103Z,22.43
2019-04-16T16:11:57.447Z,25.37
2019-04-16T16:14:33.236Z,26.00
2019-04-16T16:17:00.539Z,41.80
2019-04-16T16:19:31.201Z,24.43
2019-04-16T16:22:01.840Z,20.63
2019-04-16T16:24:35.752Z,24.23
2019-04-16T16:27:04.936Z,27.67
2019-04-16T16:29:37.954Z,31.37
2019-04-16T16:32:08.721Z,28.93
2019-04-16T16:34:39.255Z,29.73
2019-04-16T16:37:09.898Z,31.83
2019-04-16T16:39:40.650Z,23.83
2019-04-16T16:42:11.367Z,16.87
2019-04-16T16:44:42.021Z,19.03
2019-04-16T16:47:20.157Z,18.83
2019-04-16T16:49:53.343Z,18.10
2019-04-16T16:52:43.080Z,23.73
2019-04-16T16:55:18.363Z,26.23
2019-04-16T16:57:55.361Z,21.23
2019-04-16T17:00:45.172Z,24.23
2019-04-16T17:03:34.755Z,20.67
2019-04-16T17:06:07.969Z,22.87
2019-04-16T17:08:38.722Z,23.73
2019-04-16T17:11:16.491Z,21.67
2019-04-16T17:13:41.632Z,24.70
2019-04-16T17:16:14.459Z,27.93
2019-04-16T17:18:45.597Z,28.53
2019-04-16T17:21:16.648Z,31.83
2019-04-16T17:23:48.392Z,20.37
2019-04-16T17:26:19.026Z,24.00
2019-04-16T17:28:49.825Z,29.93
2019-04-16T17:31:22.144Z,33.60
2019-04-16T17:33:52.759Z,35.77
2019-04-16T17:36:24.692Z,30.53
2019-04-16T17:38:56.594Z,34.20
2019-04-16T17:41:32.552Z,38.80
2019-04-16T17:44:22.249Z,44.60
2019-04-16T17:47:05.023Z,45.63
2019-04-16T17:49:42.380Z,43.63
2019-04-16T17:52:32.197Z,44.07
2019-04-16T17:55:10.629Z,39.73
2019-04-16T17:57:47.942Z,41.67
2019-04-16T18:00:38.360Z,41.93
2019-04-16T18:03:28.495Z,63.13
2019-04-16T18:06:06.407Z,70.17
2019-04-16T18:08:56.071Z,59.30
2019-04-16T18:11:46.476Z,65.77
2019-04-16T18:14:36.206Z,64.43
2019-04-16T18:17:27.811Z,42.63
2019-04-16T18:20:08.731Z,39.27
2019-04-16T18:22:45.021Z,37.07
2019-04-16T18:25:35.444Z,35.20
2019-04-16T18:28:11.250Z,36.13
2019-04-16T18:31:00.992Z,61.23
2019-04-16T18:33:42.719Z,52.50
2019-04-16T18:36:32.321Z,53.57
2019-04-16T18:39:24.509Z,35.90
2019-04-16T18:42:05.531Z,27.27
2019-04-16T18:44:51.292Z,27.93
2019-04-16T18:47:41.452Z,43.00
2019-04-16T18:50:22.189Z,41.70
2019-04-16T18:52:51.549Z,43.40
2019-04-16T18:55:22.469Z,45.90
2019-04-16T18:57:53.571Z,34.93
2019-04-16T19:00:31.993Z,42.07
2019-04-16T19:03:03.417Z,39.33
2019-04-16T19:05:34.593Z,36.40
2019-04-16T19:08:06.077Z,35.37
2019-04-16T19:10:37.405Z,36.10
2019-04-16T19:13:11.203Z,43.43
2019-04-16T19:15:40.917Z,55.87
2019-04-16T19:18:19.606Z,46.33
2019-04-16T19:20:51.577Z,54.90
2019-04-16T19:23:21.355Z,43.67
2019-04-16T19:25:51.832Z,92.30
2019-04-16T19:28:25.072Z,66.07
2019-04-16T19:30:55.910Z,51.17
2019-04-16T19:33:26.509Z,69.00
2019-04-16T19:35:58.315Z,53.87
2019-04-16T19:38:29.359Z,37.33
2019-04-16T19:41:00.420Z,39.10
2019-04-16T19:43:34.142Z,38.53
2019-04-16T19:46:05.237Z,38.63
2019-04-16T19:48:36.556Z,38.23
2019-04-16T19:51:08.910Z,36.13
2019-04-16T19:53:39.729Z,35.43
2019-04-16T19:56:10.402Z,33.60
2019-04-16T19:58:40.964Z,37.47
2019-04-16T20:01:12.268Z,34.07
2019-04-16T20:03:43.581Z,34.67
2019-04-16T20:06:14.614Z,40.73
2019-04-16T20:08:45.352Z,38.53
2019-04-16T20:11:20.451Z,39.77
2019-04-16T20:13:48.579Z,39.57
2019-04-16T20:16:19.456Z,82.10
2019-04-16T20:18:51.560Z,78.77
2019-04-16T20:21:23.724Z,84.60
2019-04-16T20:23:54.430Z,64.80
2019-04-16T20:26:24.893Z,58.23
2019-04-16T20:28:55.977Z,50.57
2019-04-16T20:31:27.091Z,39.47
2019-04-16T20:33:57.782Z,32.53
2019-04-16T20:36:29.879Z,26.80
2019-04-16T20:39:01.454Z,30.37
2019-04-16T20:41:33.749Z,27.70
2019-04-16T20:44:04.421Z,30.60
2019-04-16T20:46:34.944Z,29.43
2019-04-16T20:49:09.799Z,26.40
2019-04-16T20:51:37.937Z,29.60
2019-04-16T20:54:12.800Z,33.10
2019-04-16T20:56:40.960Z,29.57
2019-04-16T20:59:11.503Z,24.40
2019-04-16T21:01:41.929Z,25.07
2019-04-16T21:04:12.489Z,25.20
2019-04-16T21:06:43.079Z,22.77
2019-04-16T21:09:13.530Z,21.90
2019-04-16T21:11:44.057Z,19.33
2019-04-16T21:14:14.454Z,20.93
2019-04-16T21:16:45.203Z,22.73
2019-04-16T21:19:23.218Z,24.73
2019-04-16T21:21:47.851Z,24.17
2019-04-16T21:24:18.295Z,25.03
2019-04-16T21:26:51.170Z,23.13
2019-04-16T21:29:34.344Z,26.70
2019-04-16T21:32:05.350Z,19.00
2019-04-16T21:34:58.625Z,20.43
2019-04-16T21:37:46.138Z,26.73
2019-04-16T21:40:17.204Z,23.27
2019-04-16T21:42:47.672Z,27.40
2019-04-16T21:45:19.590Z,27.30
2019-04-16T21:47:54.773Z,31.67
2019-04-16T21:50:22.172Z,26.93
2019-04-16T21:52:55.588Z,24.43
2019-04-16T21:55:25.034Z,27.50
2019-04-16T21:57:55.412Z,23.90
2019-04-16T22:00:44.980Z,22.10
2019-04-16T22:03:18.672Z,32.27
2019-04-16T22:05:49.121Z,25.17
2019-04-16T22:08:19.638Z,22.77
2019-04-16T22:10:50.043Z,25.57
2019-04-16T22:13:20.686Z,28.63
2019-04-16T22:15:53.725Z,28.80
2019-04-16T22:18:23.748Z,28.60
2019-04-16T22:20:54.169Z,29.87
2019-04-16T22:23:24.896Z,33.50
2019-04-16T22:25:57.156Z,30.43
2019-04-16T22:28:27.678Z,24.23
2019-04-16T22:30:58.241Z,26.07
2019-04-16T22:33:28.724Z,30.23
2019-04-16T22:35:59.305Z,29.70
2019-04-16T22:38:31.927Z,27.53
2019-04-16T22:41:08.578Z,29.10
2019-04-16T22:43:58.118Z,30.00
2019-04-16T22:46:32.543Z,28.40
2019-04-16T22:49:03.060Z,30.83
2019-04-16T22:51:33.450Z,29.20
2019-04-16T22:54:04.011Z,34.03
2019-04-16T22:56:42.819Z,29.40
2019-04-16T22:59:13.219Z,28.07
2019-04-16T23:01:45.512Z,25.20
2019-04-16T23:04:16.270Z,24.97
2019-04-16T23:06:46.909Z,23.90
2019-04-16T23:09:18.017Z,28.90
2019-04-16T23:11:48.529Z,26.33
2019-04-16T23:14:18.953Z,25.33
2019-04-16T23:16:50.937Z,23.57
2019-04-16T23:19:24.337Z,21.40
2019-04-16T23:21:54.833Z,23.93
2019-04-16T23:24:25.402Z,21.87
2019-04-16T23:26:55.840Z,26.33
2019-04-16T23:29:26.655Z,25.63
2019-04-16T23:31:57.579Z,27.93
2019-04-16T23:34:28.240Z,22.87
2019-04-16T23:36:58.816Z,22.00
2019-04-16T23:39:29.272Z,26.30
2019-04-16T23:41:59.833Z,24.20
2019-04-16T23:44:41.631Z,24.60
2019-04-16T23:47:30.553Z,22.93
2019-04-16T23:50:19.956Z,21.90
2019-04-16T23:53:07.203Z,25.67
2019-04-16T23:55:49.896Z,22.93
2019-04-16T23:58:31.067Z,21.57
